Time;durP1;ratioP1;P1;durP2;ratioP2;P2;SDS_P1;SDS_P2;PMS_P1;PMS_P2;Temp;Humidity;BMP_temperature;BMP_pressure;BME280_temperature;BME280_humidity;BME280_pressure;Samples;Min_cycle;Max_cycle;Signal;HPM_P1;HPM_P2
2022/04/07 00:01:59;;;;;;;;;;;;;;;;;;5033439;28;1143;-68
2022/04/07 00:04:27;;;;;;;;;;;;;;;;;;5033283;28;1924;-69
2022/04/07 00:06:53;;;;;;;;;;;;;;;;;;5033317;28;1067;-68
2022/04/07 00:09:19;;;;;;;;;;;;;;;;;;5033236;28;807;-69
2022/04/07 00:11:45;;;;;;;;;;;;;;;;;;5033388;28;1072;-68
2022/04/07 00:14:11;;;;;;;;;;;;;;;;;;5033263;28;1389;-69
2022/04/07 00:16:38;;;;;;;;;;;;;;;;;;5032870;28;1143;-69
2022/04/07 00:19:05;;;;;;;;;;;;;;;;;;5032541;28;1115;-69
2022/04/07 00:21:38;;;;;;;;;;;;;;;;;;5033181;28;862;-68
2022/04/07 00:24:05;;;;;;;;;;;;;;;;;;5032768;28;1922;-68
2022/04/07 00:26:31;;;;;;;;;;;;;;;;;;5032792;28;1123;-68
2022/04/07 00:28:57;;;;;;;;;;;;;;;;;;5035366;28;1464;-69
2022/04/07 00:31:23;;;;;;;;;;;;;;;;;;5032846;28;878;-68
2022/04/07 00:33:49;;;;;;;;;;;;;;;;;;5033191;28;1269;-69
2022/04/07 00:36:16;;;;;;;;;;;;;;;;;;5014858;28;1124;-68
2022/04/07 00:38:44;;;;;;;;;;;;;;;;;;5032259;28;941;-68
2022/04/07 00:41:10;;;;;;;;;;;;;;;;;;5032741;28;1060;-69
2022/04/07 00:43:37;;;;;;;;;;;;;;;;;;5032419;28;1977;-69
2022/04/07 00:46:03;;;;;;;;;;;;;;;;;;5032771;28;1142;-68
2022/04/07 00:48:30;;;;;;;;;;;;;;;;;;5031614;28;1048;-69
2022/04/07 00:50:56;;;;;;;;;;;;;;;;;;5032415;28;1088;-68
2022/04/07 00:53:23;;;;;;;;;;;;;;;;;;5032028;28;1369;-68
2022/04/07 00:55:51;;;;;;;;;;;;;;;;;;5032623;28;1115;-68
2022/04/07 00:58:17;;;;;;;;;;;;;;;;;;5032115;28;1287;-69
2022/04/07 01:00:43;;;;;;;;;;;;;;;;;;5032353;28;969;-69
2022/04/07 01:03:10;;;;;;;;;;;;;;;;;;5032410;28;1985;-69
2022/04/07 01:05:36;;;;;;;;;;;;;;;;;;5033838;28;957;-68
2022/04/07 01:08:02;;;;;;;;;;;;;;;;;;5032535;28;1118;-69
2022/04/07 01:10:29;;;;;;;;;;;;;;;;;;5031861;28;1103;-68
2022/04/07 01:12:57;;;;;;;;;;;;;;;;;;5031974;28;1345;-68
2022/04/07 01:15:23;;;;;;;;;;;;;;;;;;5032537;28;1181;-68
2022/04/07 01:17:49;;;;;;;;;;;;;;;;;;5031858;28;898;-69
2022/04/07 01:20:15;;;;;;;;;;;;;;;;;;5032304;28;1126;-69
2022/04/07 01:22:44;;;;;;;;;;;;;;;;;;5032040;28;1285;-68
2022/04/07 01:25:11;;;;;;;;;;;;;;;;;;5031913;28;791;-69
2022/04/07 01:27:37;;;;;;;;;;;;;;;;;;5031412;28;1142;-69
2022/04/07 01:30:04;;;;;;;;;;;;;;;;;;5031581;28;1122;-70
2022/04/07 01:32:33;;;;;;;;;;;;;;;;;;5031536;28;1391;-69
2022/04/07 01:35:00;;;;;;;;;;;;;;;;;;5032035;28;862;-69
2022/04/07 01:37:26;;;;;;;;;;;;;;;;;;5031698;28;1079;-68
2022/04/07 01:39:52;;;;;;;;;;;;;;;;;;5031624;28;905;-69
2022/04/07 01:42:20;;;;;;;;;;;;;;;;;;5031693;28;1278;-68
2022/04/07 01:44:47;;;;;;;;;;;;;;;;;;5032262;28;1918;-69
2022/04/07 01:47:13;;;;;;;;;;;;;;;;;;5031226;28;1138;-68
2022/04/07 01:49:40;;;;;;;;;;;;;;;;;;5031538;28;1131;-68
2022/04/07 01:52:06;;;;;;;;;;;;;;;;;;5031465;28;664;-68
2022/04/07 01:54:33;;;;;;;;;;;;;;;;;;5031538;28;1348;-68
2022/04/07 01:56:59;;;;;;;;;;;;;;;;;;5031275;28;985;-68
2022/04/07 01:59:27;;;;;;;;;;;;;;;;;;5031304;28;928;-68
2022/04/07 02:01:53;;;;;;;;;;;;;;;;;;5030663;28;1115;-68
2022/04/07 02:06:58;;;;;;;;;;;;;;;;;;5044671;28;1955;-68
2022/04/07 02:09:24;;;;;;;;;;;;;;;;;;5050041;28;655;-69
2022/04/07 02:11:50;;;;;;;;;;;;;;;;;;5050707;28;953;-68
2022/04/07 02:14:17;;;;;;;;;;;;;;;;;;5051084;28;1120;-68
2022/04/07 02:16:44;;;;;;;;;;;;;;;;;;5030915;28;1424;-67
2022/04/07 02:19:10;;;;;;;;;;;;;;;;;;5030799;28;1075;-68
2022/04/07 02:21:36;;;;;;;;;;;;;;;;;;5030544;28;1012;-68
2022/04/07 02:24:05;;;;;;;;;;;;;;;;;;5030889;28;1967;-68
2022/04/07 02:26:31;;;;;;;;;;;;;;;;;;5030278;28;1367;-69
2022/04/07 02:28:57;;;;;;;;;;;;;;;;;;5029923;28;1147;-69
2022/04/07 02:31:23;;;;;;;;;;;;;;;;;;5031164;28;1028;-70
2022/04/07 02:33:51;;;;;;;;;;;;;;;;;;5030518;28;1475;-69
2022/04/07 02:36:18;;;;;;;;;;;;;;;;;;5030371;28;1405;-67
2022/04/07 02:38:44;;;;;;;;;;;;;;;;;;5030385;28;1104;-67
2022/04/07 02:41:11;;;;;;;;;;;;;;;;;;5030475;28;1100;-68
2022/04/07 02:43:37;;;;;;;;;;;;;;;;;;5031182;28;1910;-68
2022/04/07 02:46:04;;;;;;;;;;;;;;;;;;5030421;28;1383;-68
2022/04/07 02:48:30;;;;;;;;;;;;;;;;;;5030747;28;1064;-68
2022/04/07 02:50:57;;;;;;;;;;;;;;;;;;5030773;28;1029;-68
2022/04/07 02:53:24;;;;;;;;;;;;;;;;;;5030652;28;866;-68
2022/04/07 02:55:51;;;;;;;;;;;;;;;;;;5030384;28;1310;-68
2022/04/07 02:58:17;;;;;;;;;;;;;;;;;;5030336;28;1063;-68
2022/04/07 03:00:43;;;;;;;;;;;;;;;;;;5030494;28;791;-67
2022/04/07 03:03:09;;;;;;;;;;;;;;;;;;5030528;28;1083;-68
2022/04/07 03:05:36;;;;;;;;;;;;;;;;;;5030071;28;2039;-67
2022/04/07 03:08:03;;;;;;;;;;;;;;;;;;5030243;28;1071;-68
2022/04/07 03:10:29;;;;;;;;;;;;;;;;;;5030470;28;937;-68
2022/04/07 03:12:56;;;;;;;;;;;;;;;;;;5032993;28;1095;-66
2022/04/07 03:15:22;;;;;;;;;;;;;;;;;;5034050;28;1422;-67
2022/04/07 03:17:48;;;;;;;;;;;;;;;;;;5034269;28;1178;-68
2022/04/07 03:20:14;;;;;;;;;;;;;;;;;;5034660;28;859;-68
2022/04/07 03:22:40;;;;;;;;;;;;;;;;;;5034174;28;1075;-67
2022/04/07 03:25:08;;;;;;;;;;;;;;;;;;5033893;28;1914;-68
2022/04/07 03:27:35;;;;;;;;;;;;;;;;;;5034144;28;1115;-69
2022/04/07 03:30:01;;;;;;;;;;;;;;;;;;5034384;28;1111;-68
2022/04/07 03:32:27;;;;;;;;;;;;;;;;;;5033836;28;1181;-67
2022/04/07 03:34:53;;;;;;;;;;;;;;;;;;5033759;28;1392;-68
2022/04/07 03:37:20;;;;;;;;;;;;;;;;;;5033806;28;1079;-68
2022/04/07 03:39:47;;;;;;;;;;;;;;;;;;5033195;28;1561;-68
2022/04/07 03:42:15;;;;;;;;;;;;;;;;;;5033760;28;1110;-68
2022/04/07 03:44:41;;;;;;;;;;;;;;;;;;5033648;28;1918;-67
2022/04/07 03:47:07;;;;;;;;;;;;;;;;;;5033594;28;1143;-69
2022/04/07 03:49:33;;;;;;;;;;;;;;;;;;5034103;28;759;-68
2022/04/07 03:52:00;;;;;;;;;;;;;;;;;;5028878;28;2127;-67
2022/04/07 03:54:26;;;;;;;;;;;;;;;;;;5033478;28;1329;-68
2022/04/07 03:56:52;;;;;;;;;;;;;;;;;;5033754;28;1713;-68
2022/04/07 03:59:19;;;;;;;;;;;;;;;;;;5033068;28;1315;-68
2022/04/07 04:01:46;;;;;;;;;;;;;;;;;;5033560;28;781;-68
2022/04/07 04:04:13;;;;;;;;;;;;;;;;;;5033123;28;1970;-68
2022/04/07 04:06:40;;;;;;;;;;;;;;;;;;5032543;28;1607;-67
2022/04/07 04:09:07;;;;;;;;;;;;;;;;;;5032944;28;1626;-67
2022/04/07 04:11:33;;;;;;;;;;;;;;;;;;5033666;28;1134;-67
2022/04/07 04:13:59;;;;;;;;;;;;;;;;;;5032795;28;1570;-67
2022/04/07 04:16:27;;;;;;;;;;;;;;;;;;5032181;28;1799;-68
2022/04/07 04:18:53;;;;;;;;;;;;;;;;;;5031629;28;1579;-69
2022/04/07 04:21:19;;;;;;;;;;;;;;;;;;5032906;28;1067;-69
2022/04/07 04:23:45;;;;;;;;;;;;;;;;;;5032069;28;1915;-67
2022/04/07 04:26:11;;;;;;;;;;;;;;;;;;5031674;28;1603;-68
2022/04/07 04:28:37;;;;;;;;;;;;;;;;;;5029656;28;1424;-66
2022/04/07 04:31:04;;;;;;;;;;;;;;;;;;5029823;28;1506;-67
2022/04/07 04:33:31;;;;;;;;;;;;;;;;;;5030079;28;1626;-67
2022/04/07 04:35:57;;;;;;;;;;;;;;;;;;5030242;28;1514;-67
2022/04/07 04:38:24;;;;;;;;;;;;;;;;;;5029682;28;1435;-67
2022/04/07 04:40:50;;;;;;;;;;;;;;;;;;5029262;28;1625;-67
2022/04/07 04:43:16;;;;;;;;;;;;;;;;;;5031002;28;1559;-67
2022/04/07 04:45:42;;;;;;;;;;;;;;;;;;5030300;28;1918;-67
2022/04/07 04:48:08;;;;;;;;;;;;;;;;;;5029955;28;1626;-66
2022/04/07 04:50:36;;;;;;;;;;;;;;;;;;5029992;28;981;-67
2022/04/07 04:53:02;;;;;;;;;;;;;;;;;;5029643;28;1652;-67
2022/04/07 04:55:28;;;;;;;;;;;;;;;;;;5030260;28;1338;-67
2022/04/07 04:57:54;;;;;;;;;;;;;;;;;;5029344;28;1573;-67
2022/04/07 05:00:21;;;;;;;;;;;;;;;;;;5029734;28;1200;-67
2022/04/07 05:02:47;;;;;;;;;;;;;;;;;;5029735;28;1338;-67
2022/04/07 05:05:13;;;;;;;;;;;;;;;;;;5027406;28;1935;-68
2022/04/07 05:07:41;;;;;;;;;;;;;;;;;;5030018;28;1376;-67
2022/04/07 05:10:07;;;;;;;;;;;;;;;;;;5029441;28;1452;-68
2022/04/07 05:12:34;;;;;;;;;;;;;;;;;;5025807;28;1532;-69
2022/04/07 05:15:00;;;;;;;;;;;;;;;;;;5013421;28;1634;-66
2022/04/07 05:17:26;;;;;;;;;;;;;;;;;;5031084;28;1547;-67
2022/04/07 05:19:52;;;;;;;;;;;;;;;;;;5032307;28;1614;-68
2022/04/07 05:22:19;;;;;;;;;;;;;;;;;;5031804;28;1587;-68
2022/04/07 05:24:48;;;;;;;;;;;;;;;;;;5031631;28;1975;-69
2022/04/07 05:27:14;;;;;;;;;;;;;;;;;;5031355;28;1590;-67
2022/04/07 05:29:41;;;;;;;;;;;;;;;;;;5015087;28;1595;-68
2022/04/07 05:32:08;;;;;;;;;;;;;;;;;;5032335;28;1064;-69
2022/04/07 05:34:34;;;;;;;;;;;;;;;;;;5031687;28;1650;-68
2022/04/07 05:37:00;;;;;;;;;;;;;;;;;;5029003;28;983;-69
2022/04/07 05:39:27;;;;;;;;;;;;;;;;;;5018878;28;1254;-68
2022/04/07 05:41:54;;;;;;;;;;;;;;;;;;5020108;28;1179;-68
2022/04/07 05:44:20;;;;;;;;;;;;;;;;;;5013319;28;1907;-70
2022/04/07 05:46:47;;;;;;;;;;;;;;;;;;5030877;28;1595;-69
2022/04/07 05:49:13;;;;;;;;;;;;;;;;;;5013303;28;1642;-69
2022/04/07 05:51:39;;;;;;;;;;;;;;;;;;5030551;28;1377;-70
2022/04/07 05:54:07;;;;;;;;;;;;;;;;;;5013217;28;1567;-70
2022/04/07 05:56:34;;;;;;;;;;;;;;;;;;5012780;28;1607;-70
2022/04/07 05:59:01;;;;;;;;;;;;;;;;;;5030664;28;1646;-69
2022/04/07 06:01:30;;;;;;;;;;;;;;;;;;5013608;28;1010;-69
2022/04/07 06:03:56;;;;;;;;;;;;;;;;;;5026560;28;2535;-66
2022/04/07 06:06:22;;;;;;;;;;;;;;;;;;5024544;28;1918;-69
2022/04/07 06:08:49;;;;;;;;;;;;;;;;;;5026483;28;1797;-69
2022/04/07 06:11:15;;;;;;;;;;;;;;;;;;5030737;28;1179;-68
2022/04/07 06:13:42;;;;;;;;;;;;;;;;;;5028222;28;2462;-69
2022/04/07 06:16:10;;;;;;;;;;;;;;;;;;5028762;28;1529;-67
2022/04/07 06:18:36;;;;;;;;;;;;;;;;;;5030537;28;1571;-69
2022/04/07 06:21:03;;;;;;;;;;;;;;;;;;5029508;28;1487;-69
2022/04/07 06:23:31;;;;;;;;;;;;;;;;;;5023868;28;1607;-69
2022/04/07 06:25:58;;;;;;;;;;;;;;;;;;5029500;28;1914;-68
2022/04/07 06:28:24;;;;;;;;;;;;;;;;;;5030337;28;1113;-69
2022/04/07 06:30:51;;;;;;;;;;;;;;;;;;5029588;28;1120;-70
2022/04/07 06:33:19;;;;;;;;;;;;;;;;;;5029547;28;1574;-71
2022/04/07 06:35:45;;;;;;;;;;;;;;;;;;5030792;28;1318;-69
2022/04/07 06:38:11;;;;;;;;;;;;;;;;;;5030291;28;1552;-69
2022/04/07 06:40:38;;;;;;;;;;;;;;;;;;5030232;28;1064;-70
2022/04/07 06:43:04;;;;;;;;;;;;;;;;;;5029484;28;1638;-69
2022/04/07 06:45:30;;;;;;;;;;;;;;;;;;5010722;28;1915;-69
2022/04/07 06:47:56;;;;;;;;;;;;;;;;;;5028566;28;1349;-70
2022/04/07 06:50:25;;;;;;;;;;;;;;;;;;5029623;28;1076;-71
2022/04/07 06:52:51;;;;;;;;;;;;;;;;;;5029446;28;1571;-71
2022/04/07 06:55:18;;;;;;;;;;;;;;;;;;5029926;28;1414;-70
2022/04/07 06:57:48;;;;;;;;;;;;;;;;;;5028899;28;1606;-70
2022/04/07 07:00:15;;;;;;;;;;;;;;;;;;5011350;28;1627;-70
2022/04/07 07:02:41;;;;;;;;;;;;;;;;;;5011612;28;2419;-68
2022/04/07 07:05:07;;;;;;;;;;;;;;;;;;5028728;28;1981;-69
2022/04/07 07:07:35;;;;;;;;;;;;;;;;;;5029179;28;778;-68
2022/04/07 07:10:01;;;;;;;;;;;;;;;;;;5026600;28;1373;-69
2022/04/07 07:12:27;;;;;;;;;;;;;;;;;;5029013;28;907;-69
2022/04/07 07:14:54;;;;;;;;;;;;;;;;;;5028788;28;1560;-69
2022/04/07 07:17:20;;;;;;;;;;;;;;;;;;5028665;28;1641;-68
2022/04/07 07:19:47;;;;;;;;;;;;;;;;;;5011975;28;1284;-69
2022/04/07 07:22:13;;;;;;;;;;;;;;;;;;5028678;28;1622;-69
2022/04/07 07:24:40;;;;;;;;;;;;;;;;;;5029280;28;1349;-67
2022/04/07 07:27:07;;;;;;;;;;;;;;;;;;5036340;28;1638;-67
2022/04/07 07:29:33;;;;;;;;;;;;;;;;;;5029008;28;1131;-64
2022/04/07 07:31:59;;;;;;;;;;;;;;;;;;5028041;28;1602;-68
2022/04/07 07:34:26;;;;;;;;;;;;;;;;;;5028661;28;1507;-67
2022/04/07 07:36:52;;;;;;;;;;;;;;;;;;5029370;28;1645;-70
2022/04/07 07:39:19;;;;;;;;;;;;;;;;;;5011844;28;1622;-69
2022/04/07 07:41:47;;;;;;;;;;;;;;;;;;5029924;28;1028;-69
2022/04/07 07:44:13;;;;;;;;;;;;;;;;;;5029902;28;1571;-69
2022/04/07 07:46:39;;;;;;;;;;;;;;;;;;5029494;28;2037;-69
2022/04/07 07:49:08;;;;;;;;;;;;;;;;;;5029539;28;1646;-70
2022/04/07 07:51:36;;;;;;;;;;;;;;;;;;5012011;28;1555;-70
2022/04/07 07:54:02;;;;;;;;;;;;;;;;;;5030451;28;1570;-70
2022/04/07 07:56:28;;;;;;;;;;;;;;;;;;5030035;28;1341;-70
2022/04/07 07:58:56;;;;;;;;;;;;;;;;;;5030871;28;1599;-70
2022/04/07 08:01:22;;;;;;;;;;;;;;;;;;5032958;28;1427;-70
2022/04/07 08:03:49;;;;;;;;;;;;;;;;;;5033213;28;958;-68
2022/04/07 08:06:15;;;;;;;;;;;;;;;;;;5051470;22;3658;-69
2022/04/07 08:08:41;;;;;;;;;;;;;;;;;;5063892;28;1680;-69
2022/04/07 08:11:07;;;;;;;;;;;;;;;;;;5044921;28;1364;-69
2022/04/07 08:13:33;;;;;;;;;;;;;;;;;;5053222;28;1451;-69
2022/04/07 08:16:01;;;;;;;;;;;;;;;;;;5052731;28;1404;-69
2022/04/07 08:18:27;;;;;;;;;;;;;;;;;;5059472;28;1598;-69
2022/04/07 08:20:53;;;;;;;;;;;;;;;;;;5072160;28;1111;-69
2022/04/07 08:23:20;;;;;;;;;;;;;;;;;;5054173;28;1571;-69
2022/04/07 08:25:46;;;;;;;;;;;;;;;;;;5071419;28;1981;-69
2022/04/07 08:28:12;;;;;;;;;;;;;;;;;;5072062;28;1657;-69
2022/04/07 08:30:38;;;;;;;;;;;;;;;;;;5072108;28;1582;-69
2022/04/07 08:33:06;;;;;;;;;;;;;;;;;;5060173;28;1075;-69
2022/04/07 08:35:32;;;;;;;;;;;;;;;;;;5066937;28;1320;-70
2022/04/07 08:37:58;;;;;;;;;;;;;;;;;;5072134;28;1314;-68
2022/04/07 08:40:24;;;;;;;;;;;;;;;;;;5069533;28;1302;-69
2022/04/07 08:42:50;;;;;;;;;;;;;;;;;;5071476;28;1539;-69
2022/04/07 08:45:17;;;;;;;;;;;;;;;;;;5072150;28;1935;-69
2022/04/07 08:47:43;;;;;;;;;;;;;;;;;;5071039;28;1613;-70
2022/04/07 08:50:11;;;;;;;;;;;;;;;;;;5072123;28;1657;-69
2022/04/07 08:52:37;;;;;;;;;;;;;;;;;;5072101;28;1660;-70
2022/04/07 08:55:05;;;;;;;;;;;;;;;;;;5060138;28;902;-69
2022/04/07 08:57:32;;;;;;;;;;;;;;;;;;5062844;28;1611;-68
2022/04/07 08:59:58;;;;;;;;;;;;;;;;;;5071451;28;1595;-70
2022/04/07 09:02:24;;;;;;;;;;;;;;;;;;5071741;28;1546;-70
2022/04/07 09:04:56;;;;;;;;;;;;;;;;;;5071986;28;1571;-69
2022/04/07 09:07:30;;;;;;;;;;;;;;;;;;5071176;28;1975;-69
2022/04/07 09:09:58;;;;;;;;;;;;;;;;;;5070997;28;1459;-69
2022/04/07 09:12:24;;;;;;;;;;;;;;;;;;5071056;28;1535;-69
2022/04/07 09:14:50;;;;;;;;;;;;;;;;;;5071559;28;1614;-69
2022/04/07 09:17:17;;;;;;;;;;;;;;;;;;5070406;28;2016;-69
2022/04/07 09:19:44;;;;;;;;;;;;;;;;;;5071371;28;1424;-69
2022/04/07 09:22:11;;;;;;;;;;;;;;;;;;5059442;28;1509;-70
2022/04/07 09:24:38;;;;;;;;;;;;;;;;;;5069122;28;1345;-68
2022/04/07 09:27:05;;;;;;;;;;;;;;;;;;5069142;28;1976;-70
2022/04/07 09:29:38;;;;;;;;;;;;;;;;;;5066053;28;1669;-70
2022/04/07 09:32:05;;;;;;;;;;;;;;;;;;5065408;28;1460;-70
2022/04/07 09:34:32;;;;;;;;;;;;;;;;;;5070460;28;1590;-70
2022/04/07 09:37:05;;;;;;;;;;;;;;;;;;5069263;28;2062;-70
2022/04/07 09:39:33;;;;;;;;;;;;;;;;;;5053406;28;1653;-69
2022/04/07 09:42:01;;;;;;;;;;;;;;;;;;5050982;28;1000;-69
2022/04/07 09:44:27;;;;;;;;;;;;;;;;;;5062382;28;1571;-69
2022/04/07 09:46:54;;;;;;;;;;;;;;;;;;5070815;28;1967;-69
2022/04/07 09:49:20;;;;;;;;;;;;;;;;;;5070655;28;1629;-69
2022/04/07 09:51:47;;;;;;;;;;;;;;;;;;5067686;28;1937;-66
2022/04/07 09:54:13;;;;;;;;;;;;;;;;;;5065030;28;1943;-67
2022/04/07 09:56:40;;;;;;;;;;;;;;;;;;5055265;28;2163;-68
2022/04/07 09:59:07;;;;;;;;;;;;;;;;;;5070244;28;1333;-68
2022/04/07 10:01:34;;;;;;;;;;;;;;;;;;5070493;28;1158;-68
2022/04/07 10:04:00;;;;;;;;;;;;;;;;;;5068002;28;1373;-68
2022/04/07 10:06:26;;;;;;;;;;;;;;;;;;5068383;28;1922;-68
2022/04/07 10:08:52;;;;;;;;;;;;;;;;;;5070927;28;839;-69
2022/04/07 10:11:19;;;;;;;;;;;;;;;;;;5070523;28;1578;-69
2022/04/07 10:13:45;;;;;;;;;;;;;;;;;;5069419;28;1368;-69
2022/04/07 10:16:14;;;;;;;;;;;;;;;;;;5069516;28;1479;-69
2022/04/07 10:18:42;;;;;;;;;;;;;;;;;;5068179;28;1515;-69
2022/04/07 10:21:08;;;;;;;;;;;;;;;;;;5068678;28;1637;-69
2022/04/07 10:23:47;;;;;;;;;;;;;;;;;;5070263;28;1005;-69
2022/04/07 10:26:13;;;;;;;;;;;;;;;;;;5069798;28;1914;-68
2022/04/07 10:28:39;;;;;;;;;;;;;;;;;;5063300;28;2218;-68
2022/04/07 10:31:14;;;;;;;;;;;;;;;;;;5065532;28;1871;-68
2022/04/07 10:33:42;;;;;;;;;;;;;;;;;;5068836;28;1714;-68
2022/04/07 10:36:09;;;;;;;;;;;;;;;;;;5066030;28;1396;-68
2022/04/07 10:38:36;;;;;;;;;;;;;;;;;;5062981;28;1165;-68
2022/04/07 10:41:02;;;;;;;;;;;;;;;;;;5051407;28;905;-68
2022/04/07 10:43:29;;;;;;;;;;;;;;;;;;5050510;28;952;-68
2022/04/07 10:46:06;;;;;;;;;;;;;;;;;;5049933;28;1979;-68
2022/04/07 10:48:34;;;;;;;;;;;;;;;;;;5069750;28;1184;-67
2022/04/07 10:51:00;;;;;;;;;;;;;;;;;;5069933;28;996;-67
2022/04/07 10:53:28;;;;;;;;;;;;;;;;;;5059793;28;1695;-68
2022/04/07 10:55:58;;;;;;;;;;;;;;;;;;5071447;28;1312;-68
2022/04/07 10:58:40;;;;;;;;;;;;;;;;;;5071283;28;1414;-68
2022/04/07 11:01:06;;;;;;;;;;;;;;;;;;5069728;28;1665;-68
2022/04/07 11:03:35;;;;;;;;;;;;;;;;;;5069653;28;1582;-68
2022/04/07 11:06:01;;;;;;;;;;;;;;;;;;5069933;28;1987;-68
2022/04/07 11:08:30;;;;;;;;;;;;;;;;;;5069457;28;1582;-68
2022/04/07 11:10:56;;;;;;;;;;;;;;;;;;5049848;28;1098;-68
2022/04/07 11:13:37;;;;;;;;;;;;;;;;;;5040994;28;1444;-68
2022/04/07 11:16:04;;;;;;;;;;;;;;;;;;5056319;28;1424;-68
2022/04/07 11:18:52;;;;;;;;;;;;;;;;;;5059287;28;1369;-68
2022/04/07 11:21:18;;;;;;;;;;;;;;;;;;5069782;28;1135;-68
2022/04/07 11:23:45;;;;;;;;;;;;;;;;;;5047119;28;1381;-67
2022/04/07 11:26:12;;;;;;;;;;;;;;;;;;5069091;28;1911;-68
2022/04/07 11:28:38;;;;;;;;;;;;;;;;;;5069704;28;1571;-68
2022/04/07 11:31:05;;;;;;;;;;;;;;;;;;5069811;28;1063;-68
2022/04/07 11:33:31;;;;;;;;;;;;;;;;;;5062152;28;1373;-67
2022/04/07 11:36:16;;;;;;;;;;;;;;;;;;5072771;28;1850;-68
2022/04/07 11:38:45;;;;;;;;;;;;;;;;;;5053815;28;1075;-68
2022/04/07 11:41:12;;;;;;;;;;;;;;;;;;5057641;28;1599;-68
2022/04/07 11:43:39;;;;;;;;;;;;;;;;;;5073304;28;1665;-68
2022/04/07 11:46:05;;;;;;;;;;;;;;;;;;5073091;28;1990;-67
2022/04/07 11:48:31;;;;;;;;;;;;;;;;;;5058623;28;1150;-68
2022/04/07 11:51:00;;;;;;;;;;;;;;;;;;5072103;28;1226;-68
2022/04/07 11:53:26;;;;;;;;;;;;;;;;;;5047207;28;1381;-68
2022/04/07 11:55:54;;;;;;;;;;;;;;;;;;5059727;28;1375;-68
2022/04/07 11:58:20;;;;;;;;;;;;;;;;;;5055585;28;1597;-68
2022/04/07 12:00:46;;;;;;;;;;;;;;;;;;5073058;28;1661;-67
2022/04/07 12:03:12;;;;;;;;;;;;;;;;;;5073432;28;925;-67
2022/04/07 12:05:39;;;;;;;;;;;;;;;;;;5060122;28;1407;-67
2022/04/07 12:08:05;;;;;;;;;;;;;;;;;;5067755;28;1981;-68
2022/04/07 12:10:32;;;;;;;;;;;;;;;;;;5073074;28;817;-68
2022/04/07 12:12:59;;;;;;;;;;;;;;;;;;5073087;28;1122;-68
2022/04/07 12:15:25;;;;;;;;;;;;;;;;;;5073270;28;1060;-69
2022/04/07 12:17:58;;;;;;;;;;;;;;;;;;5065416;28;1379;-69
2022/04/07 12:20:24;;;;;;;;;;;;;;;;;;5046353;28;1271;-68
2022/04/07 12:23:03;;;;;;;;;;;;;;;;;;5045188;28;1330;-68
2022/04/07 12:25:29;;;;;;;;;;;;;;;;;;5063823;28;1306;-68
2022/04/07 12:28:07;;;;;;;;;;;;;;;;;;5062046;28;1985;-69
2022/04/07 12:30:43;;;;;;;;;;;;;;;;;;5063370;28;1366;-68
2022/04/07 12:33:09;;;;;;;;;;;;;;;;;;5063205;28;1500;-68
2022/04/07 12:35:45;;;;;;;;;;;;;;;;;;5062717;28;1334;-68
2022/04/07 12:38:12;;;;;;;;;;;;;;;;;;5062742;28;1220;-68
2022/04/07 12:40:39;;;;;;;;;;;;;;;;;;5062929;28;1326;-68
2022/04/07 12:43:06;;;;;;;;;;;;;;;;;;5060787;28;1472;-69
2022/04/07 12:45:33;;;;;;;;;;;;;;;;;;5045020;28;1386;-69
2022/04/07 12:48:04;;;;;;;;;;;;;;;;;;5056942;28;1910;-70
2022/04/07 12:50:32;;;;;;;;;;;;;;;;;;5050945;28;1457;-68
2022/04/07 12:52:58;;;;;;;;;;;;;;;;;;5050370;28;910;-68
2022/04/07 12:55:32;;;;;;;;;;;;;;;;;;5050166;28;1131;-68
2022/04/07 12:57:58;;;;;;;;;;;;;;;;;;5049839;28;1737;-68
2022/04/07 13:00:26;;;;;;;;;;;;;;;;;;5049194;28;1155;-69
2022/04/07 13:02:53;;;;;;;;;;;;;;;;;;5050550;28;918;-69
2022/04/07 13:05:21;;;;;;;;;;;;;;;;;;5050629;28;1499;-69
2022/04/07 13:07:47;;;;;;;;;;;;;;;;;;5068361;28;1975;-69
2022/04/07 13:10:13;;;;;;;;;;;;;;;;;;5069812;28;1574;-69
2022/04/07 13:12:39;;;;;;;;;;;;;;;;;;5069849;28;1535;-69
2022/04/07 13:15:06;;;;;;;;;;;;;;;;;;5070441;28;1079;-69
2022/04/07 13:17:34;;;;;;;;;;;;;;;;;;5069636;28;1428;-69
2022/04/07 13:20:00;;;;;;;;;;;;;;;;;;5069768;28;1087;-68
2022/04/07 13:22:26;;;;;;;;;;;;;;;;;;5069115;28;1598;-68
2022/04/07 13:24:53;;;;;;;;;;;;;;;;;;5069578;28;850;-69
2022/04/07 13:27:19;;;;;;;;;;;;;;;;;;5068611;28;1981;-68
2022/04/07 13:29:46;;;;;;;;;;;;;;;;;;5069655;28;961;-69
2022/04/07 13:32:12;;;;;;;;;;;;;;;;;;5069506;28;1741;-68
2022/04/07 13:34:39;;;;;;;;;;;;;;;;;;5069440;28;1554;-69
2022/04/07 13:37:05;;;;;;;;;;;;;;;;;;5068917;28;1700;-68
2022/04/07 13:39:32;;;;;;;;;;;;;;;;;;5069236;28;1633;-68
2022/04/07 13:41:58;;;;;;;;;;;;;;;;;;5066867;28;961;-68
2022/04/07 13:44:24;;;;;;;;;;;;;;;;;;5069245;28;1610;-69
2022/04/07 13:46:51;;;;;;;;;;;;;;;;;;5068766;28;1926;-68
2022/04/07 13:49:17;;;;;;;;;;;;;;;;;;5068717;28;1563;-69
2022/04/07 13:51:44;;;;;;;;;;;;;;;;;;5069193;28;1534;-68
2022/04/07 13:54:11;;;;;;;;;;;;;;;;;;5068620;28;1555;-68
2022/04/07 13:56:37;;;;;;;;;;;;;;;;;;5067731;28;1630;-71
2022/04/07 13:59:03;;;;;;;;;;;;;;;;;;5069372;28;1123;-69
2022/04/07 14:01:29;;;;;;;;;;;;;;;;;;5068431;28;1542;-68
2022/04/07 14:03:56;;;;;;;;;;;;;;;;;;5068204;28;1562;-70
2022/04/07 14:06:22;;;;;;;;;;;;;;;;;;5067942;28;1508;-70
2022/04/07 14:08:49;;;;;;;;;;;;;;;;;;5068521;28;1999;-70
2022/04/07 14:11:16;;;;;;;;;;;;;;;;;;5065078;28;1550;-70
2022/04/07 14:13:43;;;;;;;;;;;;;;;;;;5069391;28;1531;-70
2022/04/07 14:16:09;;;;;;;;;;;;;;;;;;5070778;28;1436;-70
2022/04/07 14:18:35;;;;;;;;;;;;;;;;;;5068227;28;1499;-70
2022/04/07 14:21:01;;;;;;;;;;;;;;;;;;5068709;28;1562;-70
2022/04/07 14:23:28;;;;;;;;;;;;;;;;;;5068612;28;1424;-70
2022/04/07 14:25:55;;;;;;;;;;;;;;;;;;5068570;28;1310;-70
2022/04/07 14:28:22;;;;;;;;;;;;;;;;;;5049984;28;1973;-70
2022/04/07 14:30:49;;;;;;;;;;;;;;;;;;5049359;28;1897;-70
2022/04/07 14:33:16;;;;;;;;;;;;;;;;;;5068293;28;1812;-70
2022/04/07 14:35:42;;;;;;;;;;;;;;;;;;5065943;28;1745;-70
2022/04/07 14:38:09;;;;;;;;;;;;;;;;;;5065747;28;1799;-70
2022/04/07 14:40:37;;;;;;;;;;;;;;;;;;5065497;28;1800;-70
2022/04/07 14:43:04;;;;;;;;;;;;;;;;;;5064842;28;1731;-70
2022/04/07 14:45:30;;;;;;;;;;;;;;;;;;5062491;28;1189;-70
2022/04/07 14:47:56;;;;;;;;;;;;;;;;;;5049845;28;1918;-71
2022/04/07 14:50:23;;;;;;;;;;;;;;;;;;5068213;28;1547;-70
2022/04/07 14:52:50;;;;;;;;;;;;;;;;;;5068274;28;960;-70
2022/04/07 14:55:16;;;;;;;;;;;;;;;;;;5068331;28;1614;-69
2022/04/07 14:57:43;;;;;;;;;;;;;;;;;;5067793;28;1551;-70
2022/04/07 15:00:12;;;;;;;;;;;;;;;;;;5067734;28;1588;-69
2022/04/07 15:02:38;;;;;;;;;;;;;;;;;;5067807;28;1071;-69
2022/04/07 15:05:05;;;;;;;;;;;;;;;;;;5068276;28;1617;-69
2022/04/07 15:07:31;;;;;;;;;;;;;;;;;;5068853;28;1914;-68
2022/04/07 15:09:57;;;;;;;;;;;;;;;;;;5074373;28;1492;-70
2022/04/07 15:12:23;;;;;;;;;;;;;;;;;;5074004;28;1012;-70
2022/04/07 15:14:49;;;;;;;;;;;;;;;;;;5074189;28;1064;-70
2022/04/07 15:17:17;;;;;;;;;;;;;;;;;;5073891;28;1369;-69
2022/04/07 15:19:43;;;;;;;;;;;;;;;;;;5089676;28;1643;-70
2022/04/07 15:22:09;;;;;;;;;;;;;;;;;;5073722;28;945;-69
2022/04/07 15:24:36;;;;;;;;;;;;;;;;;;5074137;28;849;-70
2022/04/07 15:27:04;;;;;;;;;;;;;;;;;;5073715;28;1377;-67
2022/04/07 15:29:31;;;;;;;;;;;;;;;;;;5073935;28;1980;-67
2022/04/07 15:31:57;;;;;;;;;;;;;;;;;;5073202;28;727;-68
2022/04/07 15:34:24;;;;;;;;;;;;;;;;;;5073707;28;997;-68
2022/04/07 15:36:50;;;;;;;;;;;;;;;;;;5073518;28;1320;-68
2022/04/07 15:39:17;;;;;;;;;;;;;;;;;;5073843;28;1086;-68
2022/04/07 15:41:43;;;;;;;;;;;;;;;;;;5073709;28;1064;-68
2022/04/07 15:44:10;;;;;;;;;;;;;;;;;;5073903;28;1249;-68
2022/04/07 15:46:36;;;;;;;;;;;;;;;;;;5073463;28;1313;-67
2022/04/07 15:49:03;;;;;;;;;;;;;;;;;;5073270;28;1906;-68
2022/04/07 15:51:31;;;;;;;;;;;;;;;;;;5073169;28;774;-68
2022/04/07 15:53:57;;;;;;;;;;;;;;;;;;5071982;28;1511;-68
2022/04/07 15:56:23;;;;;;;;;;;;;;;;;;5073261;28;1302;-67
2022/04/07 15:58:49;;;;;;;;;;;;;;;;;;5073520;28;1076;-68
2022/04/07 16:01:16;;;;;;;;;;;;;;;;;;5073265;28;989;-68
2022/04/07 16:03:43;;;;;;;;;;;;;;;;;;5073227;28;1120;-68
2022/04/07 16:06:09;;;;;;;;;;;;;;;;;;5072783;28;1376;-67
2022/04/07 16:08:37;;;;;;;;;;;;;;;;;;5073257;28;1914;-67
2022/04/07 16:11:03;;;;;;;;;;;;;;;;;;5072929;28;1075;-67
2022/04/07 16:13:29;;;;;;;;;;;;;;;;;;5070099;28;1531;-68
2022/04/07 16:15:55;;;;;;;;;;;;;;;;;;5072759;28;1321;-68
2022/04/07 16:18:21;;;;;;;;;;;;;;;;;;5072944;28;976;-68
2022/04/07 16:20:48;;;;;;;;;;;;;;;;;;5071814;28;1067;-67
2022/04/07 16:23:16;;;;;;;;;;;;;;;;;;5073025;28;790;-68
2022/04/07 16:25:45;;;;;;;;;;;;;;;;;;5072669;28;957;-67
2022/04/07 16:28:11;;;;;;;;;;;;;;;;;;5067484;28;1981;-67
2022/04/07 16:30:41;;;;;;;;;;;;;;;;;;5052695;28;822;-68
2022/04/07 16:33:11;;;;;;;;;;;;;;;;;;5053163;28;850;-67
2022/04/07 16:35:37;;;;;;;;;;;;;;;;;;5052718;28;1123;-67
2022/04/07 16:38:04;;;;;;;;;;;;;;;;;;5052379;28;1347;-67
2022/04/07 16:40:30;;;;;;;;;;;;;;;;;;5052533;28;734;-66
2022/04/07 16:42:57;;;;;;;;;;;;;;;;;;5052351;28;1079;-67
2022/04/07 16:45:25;;;;;;;;;;;;;;;;;;5052141;28;1143;-67
2022/04/07 16:47:51;;;;;;;;;;;;;;;;;;5052126;28;1910;-67
2022/04/07 16:50:19;;;;;;;;;;;;;;;;;;5052623;28;1072;-67
2022/04/07 16:52:45;;;;;;;;;;;;;;;;;;5052239;28;957;-67
2022/04/07 16:55:12;;;;;;;;;;;;;;;;;;5052266;28;984;-67
2022/04/07 16:57:38;;;;;;;;;;;;;;;;;;5051698;28;1443;-67
2022/04/07 17:00:07;;;;;;;;;;;;;;;;;;5052232;28;1064;-67
2022/04/07 17:02:35;;;;;;;;;;;;;;;;;;5051807;28;1126;-67
2022/04/07 17:05:02;;;;;;;;;;;;;;;;;;5066967;28;1558;-67
2022/04/07 17:07:28;;;;;;;;;;;;;;;;;;5071515;28;1368;-67